createdAt,value
2022-11-23T15:09:01.397Z,104.15
2022-11-23T15:11:31.200Z,105.68
2022-11-23T15:14:05.095Z,96.75
2022-11-23T15:16:42.682Z,90.18
2022-11-23T15:19:29.454Z,90.70
2022-11-23T15:21:58.249Z,98.55
2022-11-23T15:24:27.596Z,95.32
2022-11-23T15:27:10.784Z,106.45
2022-11-23T15:29:40.088Z,95.53
2022-11-23T15:32:33.881Z,94.22
2022-11-23T15:35:07.185Z,96.22
2022-11-23T15:37:43.805Z,97.28
2022-11-23T15:40:17.280Z,95.07
2022-11-23T15:42:51.070Z,102.38
2022-11-23T15:45:42.053Z,93.75
2022-11-23T15:48:13.747Z,95.53
2022-11-23T15:51:02.494Z,101.15
2022-11-23T15:53:51.404Z,118.45
2022-11-23T15:56:27.558Z,110.13
2022-11-23T15:58:56.952Z,105.50
2022-11-23T16:01:25.696Z,103.30
2022-11-23T16:04:04.830Z,112.32
2022-11-23T16:06:42.583Z,114.03
2022-11-23T16:09:51.747Z,105.85
2022-11-23T16:12:29.233Z,101.82
2022-11-23T16:15:19.274Z,102.32
2022-11-23T16:17:47.587Z,115.32
2022-11-23T16:20:16.708Z,114.93
2022-11-23T16:22:49.938Z,101.25
2022-11-23T16:25:29.061Z,112.55
2022-11-23T16:28:04.170Z,124.40
2022-11-23T16:30:59.369Z,106.22
2022-11-23T16:33:28.128Z,106.72
2022-11-23T16:35:56.820Z,118.43
2022-11-23T16:38:25.206Z,98.85
2022-11-23T16:40:53.731Z,96.30
2022-11-23T16:43:22.279Z,106.50
2022-11-23T16:45:51.952Z,96.05
2022-11-23T16:48:26.174Z,104.65
2022-11-23T16:50:55.920Z,107.03
2022-11-23T16:53:27.021Z,99.10
2022-11-23T16:58:24.402Z,95.70
2022-11-23T17:00:52.891Z,98.45
2022-11-23T17:03:22.050Z,112.60
2022-11-23T17:05:50.558Z,118.90
2022-11-23T17:08:23.626Z,111.07
2022-11-23T17:10:52.756Z,107.18
2022-11-23T17:13:23.766Z,104.43
2022-11-23T17:15:52.674Z,91.80
2022-11-23T17:18:22.243Z,97.68
2022-11-23T17:20:50.740Z,93.93
2022-11-23T17:23:18.895Z,92.95
2022-11-23T17:25:47.488Z,99.20
2022-11-23T17:28:17.795Z,100.80
2022-11-23T17:30:46.354Z,105.57
2022-11-23T17:33:14.553Z,98.53
2022-11-23T17:35:43.248Z,99.20
2022-11-23T17:38:20.012Z,102.68
2022-11-23T17:40:48.541Z,101.53
2022-11-23T17:43:16.662Z,100.85
2022-11-23T17:45:45.389Z,84.07
2022-11-23T17:48:14.483Z,102.22
2022-11-23T17:50:42.976Z,100.57
2022-11-23T17:53:11.595Z,92.95
2022-11-23T17:55:40.192Z,104.82
2022-11-23T17:58:10.040Z,97.53
2022-11-23T18:00:39.071Z,98.57
2022-11-23T18:03:07.310Z,99.95
2022-11-23T18:05:35.925Z,99.15
2022-11-23T18:08:04.117Z,87.20
2022-11-23T18:10:32.583Z,82.00
2022-11-23T18:13:00.717Z,89.45
2022-11-23T18:15:30.554Z,116.05
2022-11-23T18:18:04.241Z,89.13
2022-11-23T18:20:33.366Z,90.22
2022-11-23T18:23:01.610Z,87.82
2022-11-23T18:25:30.151Z,92.50
2022-11-23T18:27:58.354Z,97.88
2022-11-23T18:30:26.794Z,87.55
2022-11-23T18:32:55.132Z,103.45
2022-11-23T18:35:23.594Z,95.50
2022-11-23T18:37:51.763Z,99.65
2022-11-23T18:40:20.878Z,96.32
2022-11-23T18:42:49.071Z,83.70
2022-11-23T18:45:17.718Z,83.05
2022-11-23T18:47:45.857Z,78.50
2022-11-23T18:50:14.369Z,94.18
2022-11-23T18:52:42.561Z,83.70
2022-11-23T18:55:11.058Z,77.93
2022-11-23T18:57:39.213Z,81.85
2022-11-23T19:00:08.414Z,84.57
2022-11-23T19:02:37.569Z,84.20
2022-11-23T19:05:06.495Z,80.75
2022-11-23T19:07:34.656Z,77.85
2022-11-23T19:10:03.229Z,81.32
2022-11-23T19:12:31.389Z,84.57
2022-11-23T19:14:59.943Z,74.35
2022-11-23T19:17:28.209Z,71.35
2022-11-23T19:19:56.746Z,68.78
2022-11-23T19:22:24.920Z,73.82
2022-11-23T19:24:53.433Z,74.47
2022-11-23T19:27:21.569Z,72.35
2022-11-23T19:29:51.109Z,83.47
2022-11-23T19:32:19.569Z,85.18
2022-11-23T19:34:48.308Z,74.57
2022-11-23T19:37:16.624Z,78.28
2022-11-23T19:39:45.138Z,72.40
2022-11-23T19:42:13.404Z,76.25
2022-11-23T19:44:41.912Z,81.53
2022-11-23T19:47:15.338Z,77.40
2022-11-23T19:49:46.367Z,82.22
2022-11-23T19:52:14.508Z,86.28
2022-11-23T19:54:42.963Z,89.00
2022-11-23T19:57:11.040Z,86.30
2022-11-23T19:59:39.633Z,91.03
2022-11-23T20:02:09.145Z,99.85
2022-11-23T20:04:37.808Z,97.07
2022-11-23T20:07:06.116Z,86.50
2022-11-23T20:09:35.061Z,90.55
2022-11-23T20:12:03.679Z,107.32
2022-11-23T20:14:32.251Z,92.68
2022-11-23T20:17:00.818Z,102.55
2022-11-23T20:19:29.967Z,106.65
2022-11-23T20:21:58.585Z,103.18
2022-11-23T20:24:27.185Z,112.70
2022-11-23T20:26:55.471Z,104.00
2022-11-23T20:29:23.989Z,99.20
2022-11-23T20:31:52.332Z,91.60
2022-11-23T20:34:25.168Z,97.70
2022-11-23T20:36:54.431Z,96.00
2022-11-23T20:39:23.065Z,95.35
2022-11-23T20:41:51.198Z,102.22
2022-11-23T20:44:21.005Z,97.60
2022-11-23T20:47:04.631Z,97.57
2022-11-23T20:49:33.285Z,93.57
2022-11-23T20:52:02.242Z,94.78
2022-11-23T20:54:30.778Z,85.65
2022-11-23T20:57:00.444Z,93.30
2022-11-23T20:59:29.353Z,89.50
2022-11-23T21:01:57.563Z,81.90
2022-11-23T21:04:26.613Z,89.18
2022-11-23T21:06:55.183Z,89.93
2022-11-23T21:09:23.786Z,84.03
2022-11-23T21:12:10.309Z,88.47
2022-11-23T21:14:38.960Z,84.32
2022-11-23T21:17:07.441Z,81.30
2022-11-23T21:19:37.818Z,74.03
2022-11-23T21:22:17.110Z,80.82
2022-11-23T21:24:45.593Z,88.05
2022-11-23T21:27:14.263Z,84.13
2022-11-23T21:29:45.054Z,73.65
2022-11-23T21:32:16.134Z,76.00
2022-11-23T21:34:44.583Z,80.00
2022-11-23T21:37:13.177Z,77.10
2022-11-23T21:39:42.067Z,98.00
2022-11-23T21:42:10.445Z,80.00
2022-11-23T21:44:38.960Z,80.43
2022-11-23T21:47:07.124Z,75.47
2022-11-23T21:49:35.673Z,76.15
2022-11-23T21:52:03.874Z,78.00
2022-11-23T21:54:32.552Z,79.38
2022-11-23T21:57:00.858Z,71.22
2022-11-23T21:59:29.658Z,78.95
2022-11-23T22:01:58.820Z,74.20
2022-11-23T22:04:27.662Z,82.13
2022-11-23T22:06:55.884Z,79.78
2022-11-23T22:09:24.552Z,86.55
2022-11-23T22:11:53.039Z,78.40
2022-11-23T22:14:22.182Z,72.90
2022-11-23T22:16:50.783Z,77.53
